createdAt,value
2019-02-20T00:00:05.779Z,16.10
2019-02-20T00:01:05.795Z,12.20
2019-02-20T00:02:05.786Z,13.80
2019-02-20T00:03:05.788Z,11.00
2019-02-20T00:04:05.798Z,12.50
2019-02-20T00:05:05.798Z,11.30
2019-02-20T00:06:05.804Z,15.20
2019-02-20T00:07:05.798Z,12.40
2019-02-20T00:08:05.806Z,15.90
2019-02-20T00:09:05.805Z,16.70
2019-02-20T00:10:05.867Z,12.60
2019-02-20T00:11:05.814Z,13.90
2019-02-20T00:12:05.814Z,12.10
2019-02-20T00:13:05.824Z,12.30
2019-02-20T00:14:05.824Z,11.40
2019-02-20T00:15:05.825Z,16.40
2019-02-20T00:16:05.834Z,16.40
2019-02-20T00:17:05.845Z,10.60
2019-02-20T00:18:06.748Z,12.30
2019-02-20T00:19:05.845Z,11.10
2019-02-20T00:20:05.848Z,16.50
2019-02-20T00:21:05.849Z,15.60
2019-02-20T00:22:05.849Z,11.50
2019-02-20T00:23:05.852Z,7.50
2019-02-20T00:24:05.866Z,12.70
2019-02-20T00:25:05.861Z,11.30
2019-02-20T00:26:05.862Z,14.90
2019-02-20T00:27:05.867Z,14.20
2019-02-20T00:28:05.870Z,16.10
2019-02-20T00:29:05.879Z,11.70
2019-02-20T00:30:05.897Z,16.90
2019-02-20T00:31:05.889Z,9.70
2019-02-20T00:32:05.880Z,12.10
2019-02-20T00:33:05.896Z,15.70
2019-02-20T00:34:05.891Z,15.70
2019-02-20T00:35:05.905Z,15.40
2019-02-20T00:36:05.899Z,13.10
2019-02-20T00:37:05.907Z,15.10
2019-02-20T00:38:05.908Z,14.00
2019-02-20T00:39:05.912Z,16.60
2019-02-20T00:40:05.925Z,13.80
2019-02-20T00:41:05.919Z,17.30
2019-02-20T00:42:05.914Z,13.20
2019-02-20T00:43:05.926Z,13.20
2019-02-20T00:44:05.930Z,12.50
2019-02-20T00:45:05.935Z,13.60
2019-02-20T00:46:05.931Z,14.10
2019-02-20T00:47:05.931Z,11.30
2019-02-20T00:48:05.941Z,14.40
2019-02-20T00:49:05.940Z,17.40
2019-02-20T00:50:05.941Z,16.70
2019-02-20T00:51:05.937Z,12.90
2019-02-20T00:52:05.949Z,16.20
2019-02-20T00:53:05.954Z,11.10
2019-02-20T00:54:05.964Z,14.20
2019-02-20T00:55:05.955Z,17.80
2019-02-20T00:56:05.961Z,15.50
2019-02-20T00:57:05.968Z,15.20
2019-02-20T00:58:05.979Z,12.50
2019-02-20T00:59:05.976Z,13.70
2019-02-20T01:00:05.990Z,11.00
2019-02-20T01:01:05.982Z,12.60
2019-02-20T01:02:05.979Z,10.70
2019-02-20T01:03:05.990Z,12.50
2019-02-20T01:04:05.988Z,15.20
2019-02-20T01:05:05.998Z,15.40
2019-02-20T01:06:05.999Z,15.60
2019-02-20T01:07:05.999Z,13.20
2019-02-20T01:08:06.005Z,15.00
2019-02-20T01:09:06.015Z,16.00
2019-02-20T01:10:06.008Z,12.00
2019-02-20T01:11:06.010Z,11.70
2019-02-20T01:12:06.013Z,20.30
2019-02-20T01:13:06.022Z,16.70
2019-02-20T01:14:06.083Z,15.70
2019-02-20T01:15:06.021Z,17.30
2019-02-20T01:16:06.044Z,11.30
2019-02-20T01:17:06.032Z,14.60
2019-02-20T01:18:06.033Z,15.10
2019-02-20T01:19:06.039Z,15.40
2019-02-20T01:20:06.038Z,15.90
2019-02-20T01:21:06.049Z,12.50
2019-02-20T01:22:06.042Z,11.10
2019-02-20T01:23:06.067Z,14.30
2019-02-20T01:24:06.056Z,14.00
2019-02-20T01:25:06.063Z,14.20
2019-02-20T01:26:06.062Z,15.30
2019-02-20T01:27:06.061Z,16.50
2019-02-20T01:28:06.072Z,17.30
2019-02-20T01:29:06.073Z,15.70
2019-02-20T01:30:06.077Z,12.20
2019-02-20T01:31:06.077Z,13.10
2019-02-20T01:32:06.090Z,12.90
2019-02-20T01:33:06.097Z,14.90
2019-02-20T01:34:06.094Z,13.10
2019-02-20T01:35:06.081Z,14.00
2019-02-20T01:36:06.093Z,10.50
2019-02-20T01:37:06.100Z,10.50
2019-02-20T01:38:06.103Z,14.80
2019-02-20T01:39:06.110Z,16.10
2019-02-20T01:40:06.106Z,11.00
2019-02-20T01:41:06.116Z,13.60
2019-02-20T01:42:06.122Z,16.50
2019-02-20T01:43:06.127Z,13.00
2019-02-20T01:44:06.121Z,12.00
2019-02-20T01:45:06.126Z,17.40
2019-02-20T01:46:06.153Z,12.50
2019-02-20T01:47:06.141Z,15.50
2019-02-20T01:48:06.144Z,14.10
2019-02-20T01:49:06.145Z,18.00
2019-02-20T01:50:06.140Z,14.40
2019-02-20T01:51:06.151Z,11.60
2019-02-20T01:52:06.156Z,13.40
2019-02-20T01:53:10.285Z,23.20
2019-02-20T01:54:06.153Z,15.90
2019-02-20T01:55:06.164Z,14.00
2019-02-20T01:56:06.167Z,18.60
2019-02-20T01:57:06.179Z,17.40
2019-02-20T01:58:06.182Z,16.30
2019-02-20T01:59:06.178Z,13.30
2019-02-20T02:00:06.180Z,17.30
2019-02-20T02:01:06.184Z,13.80
2019-02-20T02:02:06.186Z,13.40
2019-02-20T02:03:06.192Z,15.70
2019-02-20T02:04:06.199Z,17.10
2019-02-20T02:05:14.548Z,14.30
2019-02-20T02:06:06.202Z,11.70
2019-02-20T02:07:06.207Z,13.10
2019-02-20T02:08:06.217Z,14.20
2019-02-20T02:09:06.212Z,14.80
2019-02-20T02:10:06.228Z,18.70
2019-02-20T02:11:06.213Z,17.50
2019-02-20T02:12:06.225Z,16.30
2019-02-20T02:13:06.235Z,20.40
2019-02-20T02:14:06.230Z,15.70
2019-02-20T02:15:06.246Z,15.80
2019-02-20T02:16:06.243Z,17.70
2019-02-20T02:17:06.254Z,14.50
2019-02-20T02:18:06.254Z,15.70
2019-02-20T02:19:06.249Z,14.50
2019-02-20T02:20:06.250Z,12.60
2019-02-20T02:21:06.279Z,13.70
2019-02-20T02:22:06.258Z,14.20
2019-02-20T02:23:06.265Z,16.70
2019-02-20T02:24:06.269Z,16.00
2019-02-20T02:25:06.268Z,16.70
2019-02-20T02:26:10.897Z,16.60
2019-02-20T02:27:06.271Z,14.20
2019-02-20T02:28:06.289Z,16.10
2019-02-20T02:29:06.280Z,12.20
2019-02-20T02:30:06.295Z,17.70
2019-02-20T02:31:06.311Z,14.50
2019-02-20T02:32:06.297Z,16.40
2019-02-20T02:33:06.304Z,14.00
2019-02-20T02:34:06.359Z,19.60
2019-02-20T02:35:06.422Z,12.20
2019-02-20T02:36:06.424Z,15.40
2019-02-20T02:37:06.319Z,18.90
2019-02-20T02:38:06.367Z,16.10
2019-02-20T02:39:06.454Z,14.80
2019-02-20T02:40:06.515Z,12.90
2019-02-20T02:41:06.372Z,17.80
2019-02-20T02:42:06.355Z,17.00
2019-02-20T02:43:06.340Z,14.30
2019-02-20T02:44:06.344Z,13.90
2019-02-20T02:45:06.343Z,17.90
2019-02-20T02:46:06.351Z,18.80
2019-02-20T02:47:06.350Z,20.10
2019-02-20T02:48:06.413Z,18.20
2019-02-20T02:49:06.357Z,15.10
2019-02-20T02:50:06.365Z,20.20
2019-02-20T02:51:06.370Z,16.20
2019-02-20T02:52:06.378Z,17.40
2019-02-20T02:53:06.377Z,15.90
2019-02-20T02:54:06.378Z,14.10
2019-02-20T02:55:06.381Z,15.50
2019-02-20T02:56:06.393Z,19.10
2019-02-20T02:57:06.388Z,23.20
2019-02-20T02:58:06.391Z,18.50
2019-02-20T02:59:06.399Z,17.70
2019-02-20T03:00:06.408Z,19.40
2019-02-20T03:01:06.402Z,17.90
2019-02-20T03:02:06.410Z,19.50
2019-02-20T03:03:06.411Z,17.30
2019-02-20T03:04:06.412Z,19.50
2019-02-20T03:05:06.420Z,18.70
2019-02-20T03:06:06.424Z,18.60
2019-02-20T03:07:06.430Z,20.70
2019-02-20T03:08:06.431Z,18.10
2019-02-20T03:09:06.431Z,16.60
2019-02-20T03:10:06.440Z,19.30
2019-02-20T03:11:06.442Z,17.60
2019-02-20T03:12:06.446Z,22.40
2019-02-20T03:13:06.449Z,20.70
2019-02-20T03:14:06.452Z,18.40
2019-02-20T03:15:06.459Z,22.50
2019-02-20T03:16:06.454Z,23.20
2019-02-20T03:17:06.466Z,21.60
2019-02-20T03:18:06.465Z,21.30
2019-02-20T03:19:06.471Z,17.50
2019-02-20T03:20:06.486Z,17.50
2019-02-20T03:21:06.480Z,17.40
2019-02-20T03:22:06.478Z,17.40
2019-02-20T03:23:06.543Z,20.40
2019-02-20T03:24:06.491Z,21.40
2019-02-20T03:25:06.499Z,18.70
2019-02-20T03:26:06.494Z,17.50
2019-02-20T03:27:06.511Z,17.80
2019-02-20T03:28:06.501Z,19.60
2019-02-20T03:29:06.509Z,21.80
2019-02-20T03:30:06.508Z,22.30
2019-02-20T03:31:06.522Z,19.40
2019-02-20T03:32:06.518Z,18.50
2019-02-20T03:33:06.587Z,23.10
2019-02-20T03:34:08.977Z,22.00
2019-02-20T03:35:06.525Z,20.10
2019-02-20T03:36:06.531Z,20.50
2019-02-20T03:37:06.539Z,21.60
2019-02-20T03:38:06.533Z,20.10
2019-02-20T03:39:06.551Z,27.60
2019-02-20T03:40:06.547Z,17.50
2019-02-20T03:41:06.559Z,19.00
2019-02-20T03:42:06.565Z,20.60
2019-02-20T03:43:06.559Z,27.60
2019-02-20T03:44:06.562Z,19.80
2019-02-20T03:45:06.562Z,19.90
2019-02-20T03:46:06.572Z,22.30
2019-02-20T03:47:06.572Z,22.00
2019-02-20T03:48:06.581Z,23.50
2019-02-20T03:49:06.582Z,20.00
2019-02-20T03:50:06.586Z,18.70
2019-02-20T03:51:06.588Z,20.60
2019-02-20T03:52:06.594Z,17.60
2019-02-20T03:53:06.599Z,17.50
2019-02-20T03:54:06.597Z,21.90
2019-02-20T03:55:06.592Z,18.80
2019-02-20T03:56:06.611Z,18.70
2019-02-20T03:57:06.612Z,18.50
2019-02-20T03:58:06.615Z,19.70
2019-02-20T03:59:06.611Z,23.90
2019-02-20T04:00:06.620Z,25.30
2019-02-20T04:01:06.627Z,19.10
2019-02-20T04:02:06.628Z,23.10
2019-02-20T04:03:06.629Z,19.10
2019-02-20T04:04:06.635Z,18.80
2019-02-20T04:05:06.644Z,18.70
2019-02-20T04:06:06.646Z,21.10
2019-02-20T04:07:06.649Z,21.80
2019-02-20T04:08:06.652Z,20.50
2019-02-20T04:09:06.659Z,18.80
2019-02-20T04:10:08.994Z,19.60
2019-02-20T04:11:06.668Z,17.90
2019-02-20T04:12:06.664Z,15.60
2019-02-20T04:13:06.677Z,20.90
2019-02-20T04:14:06.673Z,22.90
2019-02-20T04:15:06.676Z,21.30
2019-02-20T04:16:06.684Z,22.10
2019-02-20T04:17:06.692Z,21.60
2019-02-20T04:18:06.690Z,21.80
2019-02-20T04:19:06.695Z,19.00
2019-02-20T04:20:06.708Z,16.20
2019-02-20T04:21:06.702Z,19.80
2019-02-20T04:22:06.706Z,19.00
2019-02-20T04:23:06.706Z,22.90
2019-02-20T04:24:06.719Z,22.70
2019-02-20T04:25:06.719Z,16.70
2019-02-20T04:26:06.718Z,19.40
2019-02-20T04:27:06.720Z,19.30
2019-02-20T04:28:06.730Z,18.80
2019-02-20T04:29:06.732Z,21.30
2019-02-20T04:30:06.732Z,19.30
2019-02-20T04:31:06.740Z,22.20
2019-02-20T04:32:06.740Z,26.90
2019-02-20T04:33:06.748Z,21.80
2019-02-20T04:34:06.746Z,18.40
2019-02-20T04:35:06.753Z,22.90
2019-02-20T04:36:06.753Z,19.80
2019-02-20T04:37:06.763Z,18.60
2019-02-20T04:38:06.762Z,17.40
2019-02-20T04:39:06.769Z,20.20
2019-02-20T04:40:06.776Z,20.20
2019-02-20T04:41:06.782Z,23.50
2019-02-20T04:42:06.780Z,26.30
2019-02-20T04:43:06.783Z,20.30
2019-02-20T04:44:06.787Z,23.70
2019-02-20T04:45:06.798Z,21.00
2019-02-20T04:46:06.796Z,26.70
2019-02-20T04:47:06.794Z,21.90
2019-02-20T04:48:06.801Z,20.40
2019-02-20T04:49:06.807Z,18.20
2019-02-20T04:50:06.812Z,25.20
2019-02-20T04:51:06.821Z,22.10
2019-02-20T04:52:06.817Z,22.00
2019-02-20T04:53:06.816Z,17.90
2019-02-20T04:54:13.268Z,20.40
2019-02-20T04:55:06.827Z,17.70
2019-02-20T04:56:06.832Z,22.50
2019-02-20T04:57:06.844Z,19.40
2019-02-20T04:58:06.839Z,19.40
2019-02-20T04:59:06.839Z,20.20
2019-02-20T05:00:06.848Z,18.80
2019-02-20T05:01:06.852Z,25.90
2019-02-20T05:02:06.855Z,21.00
2019-02-20T05:03:06.860Z,23.20
2019-02-20T05:04:06.861Z,19.80
2019-02-20T05:05:06.881Z,21.10
2019-02-20T05:06:06.879Z,25.90
2019-02-20T05:07:06.878Z,20.40
2019-02-20T05:08:06.877Z,19.70
2019-02-20T05:09:06.883Z,21.00
2019-02-20T05:10:06.885Z,18.00
2019-02-20T05:11:06.886Z,15.20
2019-02-20T05:12:06.893Z,16.40
2019-02-20T05:13:06.906Z,19.20
2019-02-20T05:14:06.901Z,18.30
2019-02-20T05:15:06.904Z,20.40
2019-02-20T05:16:06.907Z,18.40
2019-02-20T05:17:06.912Z,18.90
2019-02-20T05:18:06.917Z,19.90
2019-02-20T05:19:06.914Z,19.70
2019-02-20T05:20:06.919Z,18.30
2019-02-20T05:21:06.922Z,21.90
2019-02-20T05:22:06.929Z,17.60
2019-02-20T05:23:06.934Z,22.20
2019-02-20T05:24:06.930Z,22.00
2019-02-20T05:25:06.948Z,22.40
2019-02-20T05:26:06.943Z,19.00
2019-02-20T05:27:06.941Z,21.30
2019-02-20T05:28:06.941Z,18.60
2019-02-20T05:29:06.954Z,21.50
2019-02-20T05:30:06.959Z,21.40
2019-02-20T05:31:06.970Z,17.20
2019-02-20T05:32:06.970Z,18.90
2019-02-20T05:33:06.978Z,19.80
2019-02-20T05:34:06.968Z,16.80
2019-02-20T05:35:06.973Z,25.90
2019-02-20T05:36:07.005Z,14.10
2019-02-20T05:37:06.979Z,20.30
2019-02-20T05:38:06.983Z,20.10
2019-02-20T05:39:06.991Z,21.50
2019-02-20T05:40:06.991Z,24.20
2019-02-20T05:41:06.998Z,21.90
2019-02-20T05:42:07.000Z,21.60
2019-02-20T05:43:07.008Z,18.60
2019-02-20T05:44:07.008Z,20.50
2019-02-20T05:45:07.011Z,23.30
2019-02-20T05:46:07.012Z,18.50
2019-02-20T05:47:07.017Z,23.00
2019-02-20T05:48:07.020Z,23.10
2019-02-20T05:49:07.025Z,23.00
2019-02-20T05:50:07.038Z,22.50
2019-02-20T05:51:07.030Z,25.00
2019-02-20T05:52:07.029Z,23.30
2019-02-20T05:53:07.052Z,19.40
2019-02-20T05:54:07.042Z,26.40
2019-02-20T05:55:07.042Z,30.90
2019-02-20T05:56:07.049Z,19.70
2019-02-20T05:57:07.052Z,24.80
2019-02-20T05:58:07.060Z,21.70
2019-02-20T05:59:07.060Z,20.20
2019-02-20T06:00:07.066Z,19.20
2019-02-20T06:01:07.062Z,16.50
2019-02-20T06:02:07.069Z,22.70
2019-02-20T06:03:07.182Z,25.10
2019-02-20T06:04:07.077Z,20.70
2019-02-20T06:05:07.081Z,22.20
2019-02-20T06:06:07.079Z,25.80
2019-02-20T06:07:07.092Z,23.90
2019-02-20T06:08:07.120Z,21.20
2019-02-20T06:09:07.093Z,24.40
2019-02-20T06:10:07.098Z,19.70
2019-02-20T06:11:14.384Z,23.50
2019-02-20T06:12:07.114Z,19.70
2019-02-20T06:13:07.117Z,19.20
2019-02-20T06:14:07.109Z,20.90
2019-02-20T06:15:07.108Z,25.60
2019-02-20T06:16:07.119Z,28.70
2019-02-20T06:17:07.127Z,23.50
2019-02-20T06:18:07.124Z,23.00
2019-02-20T06:19:07.112Z,29.90
2019-02-20T06:20:07.128Z,26.80
2019-02-20T06:21:07.133Z,19.90
2019-02-20T06:22:07.132Z,21.90
2019-02-20T06:23:07.135Z,21.50
2019-02-20T06:24:07.141Z,26.10
2019-02-20T06:25:07.149Z,29.50
2019-02-20T06:26:07.149Z,24.10
2019-02-20T06:27:07.920Z,23.70
2019-02-20T06:28:07.165Z,25.10
2019-02-20T06:29:07.156Z,26.90
2019-02-20T06:30:07.159Z,23.60
2019-02-20T06:31:07.166Z,21.70
2019-02-20T06:32:07.187Z,25.40
2019-02-20T06:33:07.172Z,27.70
2019-02-20T06:34:07.169Z,26.10
2019-02-20T06:35:07.177Z,24.10
2019-02-20T06:36:07.187Z,22.90
2019-02-20T06:37:07.193Z,22.40
2019-02-20T06:38:10.517Z,18.40
2019-02-20T06:39:07.191Z,24.70
2019-02-20T06:40:07.195Z,25.30
2019-02-20T06:41:07.203Z,26.60
2019-02-20T06:42:07.225Z,23.50
2019-02-20T06:43:07.202Z,21.70
2019-02-20T06:44:07.227Z,29.30
2019-02-20T06:45:07.210Z,22.50
2019-02-20T06:46:07.211Z,21.90
2019-02-20T06:47:07.221Z,24.40
2019-02-20T06:48:07.227Z,23.10
2019-02-20T06:49:07.222Z,23.90
2019-02-20T06:50:07.221Z,23.20
2019-02-20T06:51:07.232Z,29.50
2019-02-20T06:52:07.232Z,25.20
2019-02-20T06:53:07.233Z,25.00
2019-02-20T06:54:07.237Z,25.50
2019-02-20T06:55:07.243Z,24.20
2019-02-20T06:56:07.244Z,27.80
2019-02-20T06:57:07.255Z,28.70
2019-02-20T06:58:07.255Z,27.40
2019-02-20T06:59:07.256Z,27.70
2019-02-20T07:00:07.263Z,24.30
2019-02-20T07:01:07.267Z,23.60
2019-02-20T07:02:07.283Z,25.70
2019-02-20T07:03:07.265Z,26.10
2019-02-20T07:04:07.276Z,26.50
2019-02-20T07:05:07.275Z,32.40
2019-02-20T07:06:07.277Z,27.50
2019-02-20T07:07:07.292Z,24.50
2019-02-20T07:08:07.287Z,25.00
2019-02-20T07:09:07.283Z,23.80
2019-02-20T07:10:07.289Z,28.10
2019-02-20T07:11:07.315Z,23.50
2019-02-20T07:12:07.298Z,26.60
2019-02-20T07:13:07.322Z,30.40
2019-02-20T07:14:07.312Z,28.90
2019-02-20T07:15:07.312Z,24.90
2019-02-20T07:16:07.315Z,29.00
2019-02-20T07:17:07.322Z,28.20
2019-02-20T07:18:07.319Z,25.20
2019-02-20T07:19:07.342Z,30.80
2019-02-20T07:20:07.330Z,25.30
2019-02-20T07:21:07.334Z,23.80
2019-02-20T07:22:07.338Z,24.00
2019-02-20T07:23:07.341Z,24.40
2019-02-20T07:24:07.346Z,25.10
2019-02-20T07:25:07.351Z,17.10
2019-02-20T07:26:07.387Z,25.20
2019-02-20T07:27:28.367Z,25.90
2019-02-20T07:28:07.361Z,24.60
2019-02-20T07:29:07.369Z,29.10
2019-02-20T07:30:07.372Z,27.50
2019-02-20T07:31:07.369Z,25.60
2019-02-20T07:32:07.367Z,26.40
2019-02-20T07:33:07.379Z,27.30
2019-02-20T07:34:07.385Z,29.10
2019-02-20T07:35:07.392Z,27.00
2019-02-20T07:36:07.392Z,28.00
2019-02-20T07:37:07.408Z,24.90
2019-02-20T07:38:07.403Z,25.20
2019-02-20T07:39:07.405Z,24.20
2019-02-20T07:40:07.409Z,25.70
2019-02-20T07:41:07.414Z,23.90
2019-02-20T07:42:07.430Z,23.60
2019-02-20T07:43:07.430Z,23.70
2019-02-20T07:44:07.427Z,26.80
2019-02-20T07:45:07.439Z,21.10
2019-02-20T07:46:07.437Z,25.10
2019-02-20T07:47:07.436Z,26.60
2019-02-20T07:48:07.482Z,23.00
2019-02-20T07:49:07.447Z,26.00
2019-02-20T07:50:07.444Z,28.10
2019-02-20T07:51:07.456Z,29.80
2019-02-20T07:52:07.457Z,23.10
2019-02-20T07:53:07.460Z,23.50
2019-02-20T07:54:07.473Z,25.20
2019-02-20T07:55:13.208Z,26.50
2019-02-20T07:56:07.476Z,25.90
2019-02-20T07:57:07.494Z,24.80
2019-02-20T07:58:07.484Z,23.40
2019-02-20T07:59:07.496Z,24.30
2019-02-20T08:00:07.492Z,21.80
2019-02-20T08:01:07.500Z,29.20
2019-02-20T08:02:07.513Z,23.50
2019-02-20T08:03:07.513Z,22.10
2019-02-20T08:04:07.511Z,28.80
2019-02-20T08:05:07.552Z,23.60
2019-02-20T08:06:07.524Z,24.50
2019-02-20T08:07:07.521Z,23.30
2019-02-20T08:08:07.529Z,23.50
2019-02-20T08:09:07.533Z,23.30
2019-02-20T08:10:07.536Z,25.00
2019-02-20T08:11:07.547Z,24.40
2019-02-20T08:12:07.585Z,23.60
2019-02-20T08:13:09.459Z,21.90
2019-02-20T08:14:07.564Z,25.90
2019-02-20T08:15:07.564Z,24.60
2019-02-20T08:16:07.573Z,20.00
2019-02-20T08:17:07.590Z,21.60
2019-02-20T08:18:07.589Z,22.00
2019-02-20T08:19:07.584Z,28.70
2019-02-20T08:20:07.600Z,24.10
2019-02-20T08:21:07.597Z,21.60
2019-02-20T08:22:07.603Z,19.60
2019-02-20T08:23:07.610Z,22.40
2019-02-20T08:24:07.622Z,21.80
2019-02-20T08:25:07.625Z,24.80
2019-02-20T08:26:07.626Z,25.70
2019-02-20T08:27:07.636Z,27.10
2019-02-20T08:28:07.641Z,21.80
2019-02-20T08:29:07.647Z,25.40
2019-02-20T08:30:07.655Z,22.30
2019-02-20T08:31:07.661Z,22.10
2019-02-20T08:32:07.671Z,22.00
2019-02-20T08:33:07.668Z,25.80
2019-02-20T08:34:07.668Z,23.50
2019-02-20T08:35:07.698Z,23.00
2019-02-20T08:36:07.690Z,23.50
2019-02-20T08:37:07.695Z,22.90
2019-02-20T08:38:07.702Z,22.60
2019-02-20T08:39:07.707Z,23.20
2019-02-20T08:40:07.716Z,25.10
2019-02-20T08:41:07.729Z,19.00
2019-02-20T08:42:07.728Z,24.60
2019-02-20T08:43:07.751Z,23.20
2019-02-20T08:44:07.737Z,21.90
2019-02-20T08:45:07.750Z,17.20
2019-02-20T08:46:07.750Z,23.20
2019-02-20T08:47:07.755Z,28.70
2019-02-20T08:48:07.761Z,22.50
2019-02-20T08:49:07.766Z,18.80
2019-02-20T08:50:07.775Z,19.90
2019-02-20T08:51:07.792Z,23.70
2019-02-20T08:52:07.782Z,27.50
2019-02-20T08:53:07.800Z,23.00
2019-02-20T08:54:07.791Z,20.50
2019-02-20T08:55:07.804Z,20.60
2019-02-20T08:56:07.822Z,20.50
2019-02-20T08:57:07.819Z,23.30
2019-02-20T08:58:07.830Z,21.80
2019-02-20T08:59:07.825Z,24.30
2019-02-20T09:00:07.833Z,19.90
2019-02-20T09:01:07.843Z,20.90
2019-02-20T09:02:07.848Z,24.70
2019-02-20T09:03:07.847Z,21.80
2019-02-20T09:04:07.859Z,22.20
2019-02-20T09:05:07.870Z,21.80
2019-02-20T09:06:07.877Z,28.40
2019-02-20T09:07:07.869Z,19.00
2019-02-20T09:08:07.882Z,24.80
2019-02-20T09:09:07.936Z,28.30
2019-02-20T09:10:07.909Z,22.70
2019-02-20T09:11:07.908Z,23.90
2019-02-20T09:12:07.906Z,19.90
2019-02-20T09:14:07.919Z,24.70
2019-02-20T09:15:07.934Z,21.70
2019-02-20T09:16:07.940Z,21.40
2019-02-20T09:17:07.950Z,25.50
2019-02-20T09:18:07.952Z,20.60
2019-02-20T09:19:07.963Z,19.40
2019-02-20T09:20:07.962Z,22.20
2019-02-20T09:21:07.977Z,21.80
2019-02-20T09:22:07.975Z,18.10
2019-02-20T09:23:07.983Z,25.20
2019-02-20T09:24:07.984Z,23.70
2019-02-20T09:25:08.005Z,20.80
2019-02-20T09:26:08.013Z,19.10
2019-02-20T09:27:08.019Z,18.70
2019-02-20T09:28:08.023Z,22.20
2019-02-20T09:29:08.024Z,15.90
2019-02-20T09:30:08.042Z,19.20
2019-02-20T09:31:08.057Z,22.50
2019-02-20T09:32:08.054Z,17.90
2019-02-20T09:33:08.072Z,18.60
2019-02-20T09:34:08.087Z,14.80
2019-02-20T09:35:08.094Z,20.70
2019-02-20T09:36:08.085Z,23.10
2019-02-20T09:37:08.102Z,16.80
2019-02-20T09:38:08.105Z,21.00
2019-02-20T09:39:08.109Z,22.70
2019-02-20T09:40:08.114Z,20.10
2019-02-20T09:41:08.130Z,21.70
2019-02-20T09:42:08.131Z,24.30
2019-02-20T09:43:08.141Z,22.10
2019-02-20T09:44:08.152Z,23.80
2019-02-20T09:45:08.154Z,18.50
2019-02-20T09:46:08.161Z,18.00
2019-02-20T09:47:08.172Z,20.40
2019-02-20T09:48:08.182Z,20.60
2019-02-20T09:49:08.190Z,16.70
2019-02-20T09:50:08.209Z,17.00
2019-02-20T09:51:08.226Z,17.00
2019-02-20T09:52:08.221Z,17.50
2019-02-20T09:53:08.228Z,16.90
2019-02-20T09:54:08.241Z,20.70
2019-02-20T09:55:08.250Z,27.80
2019-02-20T09:56:08.261Z,16.90
2019-02-20T09:57:08.271Z,16.00
2019-02-20T09:58:08.286Z,17.00
2019-02-20T09:59:08.283Z,16.00
2019-02-20T10:00:08.298Z,21.20
2019-02-20T10:01:08.313Z,19.70
2019-02-20T10:02:08.323Z,14.20
2019-02-20T10:03:08.330Z,14.30
2019-02-20T10:04:08.350Z,20.70
2019-02-20T10:05:08.350Z,13.80
2019-02-20T10:06:08.361Z,17.90
2019-02-20T10:07:08.371Z,17.10
2019-02-20T10:08:08.383Z,19.90
2019-02-20T10:09:08.391Z,18.80
2019-02-20T10:10:08.393Z,17.80
2019-02-20T10:11:08.415Z,19.50
2019-02-20T10:12:08.423Z,16.70
2019-02-20T10:13:10.928Z,15.40
2019-02-20T10:14:08.455Z,21.50
2019-02-20T10:15:08.451Z,15.10
2019-02-20T10:16:08.468Z,21.70
2019-02-20T10:17:08.476Z,16.80
2019-02-20T10:18:08.492Z,18.80
2019-02-20T10:19:08.499Z,19.80
2019-02-20T10:20:08.518Z,16.00
2019-02-20T10:21:08.520Z,14.00
2019-02-20T10:22:08.530Z,14.60
2019-02-20T10:23:08.539Z,15.50
2019-02-20T10:24:08.553Z,16.30
2019-02-20T10:25:08.568Z,14.30
2019-02-20T10:26:08.583Z,15.70
2019-02-20T10:27:08.586Z,14.50
2019-02-20T10:28:08.593Z,14.20
2019-02-20T10:29:08.609Z,17.60
2019-02-20T10:30:08.609Z,14.40
2019-02-20T10:31:08.625Z,12.90
2019-02-20T10:32:08.642Z,12.70
2019-02-20T10:33:08.648Z,14.70
2019-02-20T10:34:08.661Z,14.70
2019-02-20T10:35:08.663Z,13.40
2019-02-20T10:36:08.678Z,16.30
2019-02-20T10:37:08.698Z,15.50
2019-02-20T10:38:08.693Z,14.60
2019-02-20T10:39:08.708Z,14.00
2019-02-20T10:40:08.745Z,15.90
2019-02-20T10:41:08.742Z,16.70
2019-02-20T10:42:08.767Z,15.20
2019-02-20T10:43:08.774Z,11.70
2019-02-20T10:44:08.760Z,13.30
2019-02-20T10:45:08.763Z,18.70
2019-02-20T10:46:08.770Z,14.90
2019-02-20T10:47:08.783Z,15.50
2019-02-20T10:48:08.791Z,14.30
2019-02-20T10:49:08.793Z,12.70
2019-02-20T10:50:08.815Z,12.90
2019-02-20T10:51:08.820Z,15.30
2019-02-20T10:52:08.827Z,12.10
2019-02-20T10:53:08.836Z,15.40
2019-02-20T10:54:08.854Z,18.80
2019-02-20T10:55:08.947Z,15.70
2019-02-20T10:56:09.672Z,14.40
2019-02-20T10:57:08.891Z,18.00
2019-02-20T10:58:08.881Z,16.80
2019-02-20T10:59:08.876Z,14.40
2019-02-20T11:00:08.901Z,13.60
2019-02-20T11:01:08.906Z,13.90
2019-02-20T11:02:08.915Z,15.80
2019-02-20T11:03:08.922Z,16.00
2019-02-20T11:04:08.933Z,14.20
2019-02-20T11:05:08.949Z,21.30
2019-02-20T11:06:08.953Z,15.10
2019-02-20T11:07:08.962Z,14.50
2019-02-20T11:08:08.965Z,15.10
2019-02-20T11:09:08.981Z,14.40
2019-02-20T11:10:08.981Z,15.20
2019-02-20T11:11:08.989Z,17.00
2019-02-20T11:12:09.003Z,15.20
2019-02-20T11:13:09.011Z,15.60
2019-02-20T11:14:09.021Z,18.40
2019-02-20T11:15:09.039Z,16.70
2019-02-20T11:16:09.028Z,15.90
2019-02-20T11:17:09.040Z,10.30
2019-02-20T11:18:09.052Z,13.50
2019-02-20T11:19:09.058Z,12.90
2019-02-20T11:20:09.082Z,14.20
2019-02-20T11:21:09.074Z,17.60
2019-02-20T11:22:09.091Z,15.20
2019-02-20T11:23:09.088Z,16.10
2019-02-20T11:24:09.101Z,17.10
2019-02-20T11:25:09.123Z,14.10
2019-02-20T11:26:17.539Z,14.80
2019-02-20T11:27:09.124Z,16.50
2019-02-20T11:28:09.138Z,13.50
2019-02-20T11:29:09.151Z,15.80
2019-02-20T11:30:09.151Z,16.30
2019-02-20T11:31:09.173Z,14.70
2019-02-20T11:32:09.179Z,17.30
2019-02-20T11:33:09.189Z,15.30
2019-02-20T11:34:09.195Z,20.30
2019-02-20T11:35:09.196Z,15.70
2019-02-20T11:36:09.224Z,18.70
2019-02-20T11:37:09.228Z,18.20
2019-02-20T11:38:09.221Z,15.20
2019-02-20T11:39:09.227Z,15.40
2019-02-20T11:40:09.270Z,16.20
2019-02-20T11:41:09.261Z,16.00
2019-02-20T11:42:09.255Z,15.20
2019-02-20T11:43:09.278Z,17.00
2019-02-20T11:44:09.282Z,18.20
2019-02-20T11:45:09.296Z,17.30
2019-02-20T11:46:09.311Z,15.60
2019-02-20T11:47:09.313Z,15.40
2019-02-20T11:48:09.320Z,16.40
2019-02-20T11:49:09.327Z,15.90
2019-02-20T11:50:09.346Z,17.60
2019-02-20T11:51:09.354Z,14.80
2019-02-20T11:52:09.358Z,13.90
2019-02-20T11:53:09.373Z,13.20
2019-02-20T11:54:09.379Z,15.10
2019-02-20T11:55:09.388Z,15.60
2019-02-20T11:56:09.391Z,16.80
2019-02-20T11:57:09.400Z,15.70
2019-02-20T11:58:09.419Z,21.40
2019-02-20T11:59:09.427Z,21.30
2019-02-20T12:00:09.435Z,17.80
2019-02-20T12:01:09.447Z,18.40
2019-02-20T12:02:09.454Z,20.20
2019-02-20T12:03:09.461Z,18.40
2019-02-20T12:04:09.474Z,19.90
2019-02-20T12:05:09.478Z,25.60
2019-02-20T12:06:09.497Z,19.30
2019-02-20T12:07:09.496Z,18.50
2019-02-20T12:08:09.509Z,21.90
2019-02-20T12:09:09.514Z,23.30
2019-02-20T12:10:09.523Z,26.40
2019-02-20T12:11:09.523Z,21.20
2019-02-20T12:12:09.568Z,19.80
2019-02-20T12:13:09.552Z,20.10
2019-02-20T12:14:09.556Z,23.00
2019-02-20T12:15:09.581Z,18.80
2019-02-20T12:16:09.576Z,19.60
2019-02-20T12:17:09.585Z,19.10
2019-02-20T12:18:17.201Z,24.20
2019-02-20T12:19:09.615Z,20.80
2019-02-20T12:20:09.627Z,17.70
2019-02-20T12:21:09.627Z,17.80
2019-02-20T12:22:09.642Z,21.10
2019-02-20T12:23:09.636Z,25.30
2019-02-20T12:24:09.644Z,25.20
2019-02-20T12:25:09.665Z,21.60
2019-02-20T12:26:09.672Z,18.40
2019-02-20T12:27:09.675Z,20.10
2019-02-20T12:28:09.686Z,24.30
2019-02-20T12:29:11.239Z,22.00
2019-02-20T12:30:09.717Z,19.50
2019-02-20T12:31:09.716Z,22.00
2019-02-20T12:32:09.736Z,20.60
2019-02-20T12:33:09.732Z,19.50
2019-02-20T12:34:09.748Z,22.60
2019-02-20T12:35:09.755Z,20.50
2019-02-20T12:36:09.775Z,22.40
2019-02-20T12:37:09.779Z,23.10
2019-02-20T12:38:09.787Z,22.50
2019-02-20T12:39:09.798Z,21.60
2019-02-20T12:40:09.808Z,22.20
2019-02-20T12:41:10.928Z,21.30
2019-02-20T12:42:09.851Z,22.60
2019-02-20T12:43:09.854Z,19.70
2019-02-20T12:44:09.854Z,21.40
2019-02-20T12:45:09.870Z,21.10
2019-02-20T12:46:09.925Z,19.60
2019-02-20T12:47:09.896Z,19.30
2019-02-20T12:48:09.912Z,19.80
2019-02-20T12:49:09.911Z,18.70
2019-02-20T12:50:09.928Z,20.60
2019-02-20T12:52:09.946Z,18.50
2019-02-20T12:53:09.957Z,19.80
2019-02-20T12:54:09.972Z,17.20